sensor_id;sensor_type;location;lat;lon;timestamp;pressure;altitude;pressure_sealevel;temperature;humidity
70027;BME280;57506;50.092;15.804;2023-07-31T00:00:34;98955.31;;;15.53;100.00
70027;BME280;57506;50.092;15.804;2023-07-31T00:03:00;98956.56;;;15.57;100.00
70027;BME280;57506;50.092;15.804;2023-07-31T00:05:25;98951.94;;;15.57;100.00
70027;BME280;57506;50.092;15.804;2023-07-31T00:07:51;98961.50;;;15.60;100.00
70027;BME280;57506;50.092;15.804;2023-07-31T00:10:17;98959.31;;;15.50;100.00
70027;BME280;57506;50.092;15.804;2023-07-31T00:12:44;98956.59;;;15.50;100.00
70027;BME280;57506;50.092;15.804;2023-07-31T00:15:10;98966.41;;;15.51;100.00
70027;BME280;57506;50.092;15.804;2023-07-31T00:17:37;98961.44;;;15.48;100.00
70027;BME280;57506;50.092;15.804;2023-07-31T00:20:02;98969.81;;;15.47;100.00
70027;BME280;57506;50.092;15.804;2023-07-31T00:22:28;98964.59;;;15.45;100.00
70027;BME280;57506;50.092;15.804;2023-07-31T00:24:54;98964.28;;;15.42;100.00
70027;BME280;57506;50.092;15.804;2023-07-31T00:27:19;98961.78;;;15.40;100.00
70027;BME280;57506;50.092;15.804;2023-07-31T00:29:45;98967.22;;;15.40;100.00
70027;BME280;57506;50.092;15.804;2023-07-31T00:32:10;98961.47;;;15.30;100.00
70027;BME280;57506;50.092;15.804;2023-07-31T00:34:37;98969.84;;;15.28;100.00
70027;BME280;57506;50.092;15.804;2023-07-31T00:37:03;98966.66;;;15.20;100.00
70027;BME280;57506;50.092;15.804;2023-07-31T00:39:30;98958.81;;;15.12;100.00
70027;BME280;57506;50.092;15.804;2023-07-31T00:41:56;98961.84;;;15.03;100.00
70027;BME280;57506;50.092;15.804;2023-07-31T00:44:21;98963.78;;;14.96;100.00
70027;BME280;57506;50.092;15.804;2023-07-31T00:46:47;98963.91;;;14.90;100.00
70027;BME280;57506;50.092;15.804;2023-07-31T00:49:12;98954.16;;;14.82;100.00
70027;BME280;57506;50.092;15.804;2023-07-31T00:51:38;98955.91;;;14.77;100.00
70027;BME280;57506;50.092;15.804;2023-07-31T00:54:04;98964.94;;;14.70;100.00
70027;BME280;57506;50.092;15.804;2023-07-31T00:56:31;98950.28;;;14.60;100.00
70027;BME280;57506;50.092;15.804;2023-07-31T00:58:57;98951.38;;;14.52;100.00
70027;BME280;57506;50.092;15.804;2023-07-31T01:01:23;98951.81;;;14.49;100.00
70027;BME280;57506;50.092;15.804;2023-07-31T01:03:50;98953.56;;;14.44;100.00
70027;BME280;57506;50.092;15.804;2023-07-31T01:09:07;98951.09;;;14.35;100.00
70027;BME280;57506;50.092;15.804;2023-07-31T01:11:48;98948.19;;;14.37;100.00
70027;BME280;57506;50.092;15.804;2023-07-31T01:14:16;98942.59;;;14.32;100.00
70027;BME280;57506;50.092;15.804;2023-07-31T01:16:42;98943.84;;;14.29;100.00
70027;BME280;57506;50.092;15.804;2023-07-31T01:19:09;98953.56;;;14.19;100.00
70027;BME280;57506;50.092;15.804;2023-07-31T01:24:28;98948.72;;;13.78;100.00
70027;BME280;57506;50.092;15.804;2023-07-31T01:27:05;98935.31;;;13.58;100.00
70027;BME280;57506;50.092;15.804;2023-07-31T01:29:48;98957.84;;;13.52;100.00
70027;BME280;57506;50.092;15.804;2023-07-31T01:32:14;98939.38;;;13.42;100.00
70027;BME280;57506;50.092;15.804;2023-07-31T01:34:44;98931.66;;;13.46;100.00
70027;BME280;57506;50.092;15.804;2023-07-31T01:37:09;98925.63;;;13.44;100.00
70027;BME280;57506;50.092;15.804;2023-07-31T01:39:35;98925.84;;;13.42;100.00
70027;BME280;57506;50.092;15.804;2023-07-31T01:42:00;98922.75;;;13.39;100.00
70027;BME280;57506;50.092;15.804;2023-07-31T01:44:27;98918.81;;;13.35;100.00
70027;BME280;57506;50.092;15.804;2023-07-31T01:46:52;98905.28;;;13.35;100.00
70027;BME280;57506;50.092;15.804;2023-07-31T01:49:18;98913.63;;;13.33;100.00
70027;BME280;57506;50.092;15.804;2023-07-31T01:51:44;98905.50;;;13.33;100.00
70027;BME280;57506;50.092;15.804;2023-07-31T01:54:09;98909.25;;;13.32;100.00
70027;BME280;57506;50.092;15.804;2023-07-31T01:56:35;98902.78;;;13.33;100.00
70027;BME280;57506;50.092;15.804;2023-07-31T01:59:00;98901.75;;;13.34;100.00
70027;BME280;57506;50.092;15.804;2023-07-31T02:01:26;98905.06;;;13.36;100.00
70027;BME280;57506;50.092;15.804;2023-07-31T02:03:51;98900.69;;;13.35;100.00
70027;BME280;57506;50.092;15.804;2023-07-31T02:06:17;98899.84;;;13.41;100.00
70027;BME280;57506;50.092;15.804;2023-07-31T02:08:43;98897.13;;;13.41;100.00
70027;BME280;57506;50.092;15.804;2023-07-31T02:11:09;98897.13;;;13.41;100.00
70027;BME280;57506;50.092;15.804;2023-07-31T02:13:34;98898.56;;;13.44;100.00
70027;BME280;57506;50.092;15.804;2023-07-31T02:16:00;98908.72;;;13.48;100.00
70027;BME280;57506;50.092;15.804;2023-07-31T02:20:54;98910.34;;;13.56;100.00
70027;BME280;57506;50.092;15.804;2023-07-31T02:23:19;98902.44;;;13.54;100.00
70027;BME280;57506;50.092;15.804;2023-07-31T02:25:45;98902.84;;;13.58;100.00
70027;BME280;57506;50.092;15.804;2023-07-31T02:28:11;98902.44;;;13.54;100.00
70027;BME280;57506;50.092;15.804;2023-07-31T02:30:37;98911.81;;;13.52;100.00
70027;BME280;57506;50.092;15.804;2023-07-31T02:33:03;98907.09;;;13.47;100.00
70027;BME280;57506;50.092;15.804;2023-07-31T02:35:29;98903.16;;;13.43;100.00
70027;BME280;57506;50.092;15.804;2023-07-31T02:37:54;98907.47;;;13.51;100.00
70027;BME280;57506;50.092;15.804;2023-07-31T02:40:20;98913.25;;;13.54;100.00
70027;BME280;57506;50.092;15.804;2023-07-31T02:42:45;98880.28;;;13.39;100.00
70027;BME280;57506;50.092;15.804;2023-07-31T02:45:11;98901.22;;;13.50;100.00
70027;BME280;57506;50.092;15.804;2023-07-31T02:47:37;98902.88;;;13.51;100.00
70027;BME280;57506;50.092;15.804;2023-07-31T02:50:03;98906.97;;;13.60;100.00
70027;BME280;57506;50.092;15.804;2023-07-31T02:52:29;98910.75;;;13.59;100.00
70027;BME280;57506;50.092;15.804;2023-07-31T02:54:55;98909.06;;;13.58;100.00
70027;BME280;57506;50.092;15.804;2023-07-31T02:57:20;98901.56;;;13.60;100.00
70027;BME280;57506;50.092;15.804;2023-07-31T02:59:46;98897.84;;;13.55;100.00
70027;BME280;57506;50.092;15.804;2023-07-31T03:02:11;98897.25;;;13.53;100.00
70027;BME280;57506;50.092;15.804;2023-07-31T03:04:38;98903.09;;;13.50;100.00
70027;BME280;57506;50.092;15.804;2023-07-31T03:07:04;98898.97;;;13.47;100.00
70027;BME280;57506;50.092;15.804;2023-07-31T03:09:30;98908.72;;;13.48;100.00
70027;BME280;57506;50.092;15.804;2023-07-31T03:11:56;98903.31;;;13.48;100.00
70027;BME280;57506;50.092;15.804;2023-07-31T03:14:21;98903.31;;;13.48;100.00
70027;BME280;57506;50.092;15.804;2023-07-31T03:16:47;98903.09;;;13.50;100.00
70027;BME280;57506;50.092;15.804;2023-07-31T03:19:13;98902.47;;;13.48;100.00
70027;BME280;57506;50.092;15.804;2023-07-31T03:21:38;98907.88;;;13.48;100.00
70027;BME280;57506;50.092;15.804;2023-07-31T03:24:04;98895.66;;;13.45;100.00
70027;BME280;57506;50.092;15.804;2023-07-31T03:26:31;98913.69;;;13.51;100.00
70027;BME280;57506;50.092;15.804;2023-07-31T03:28:57;98905.56;;;13.51;100.00
70027;BME280;57506;50.092;15.804;2023-07-31T03:31:22;98911.59;;;13.53;100.00
70027;BME280;57506;50.092;15.804;2023-07-31T03:33:48;98911.22;;;13.50;100.00
70027;BME280;57506;50.092;15.804;2023-07-31T03:36:13;98917.91;;;13.47;100.00
70027;BME280;57506;50.092;15.804;2023-07-31T03:38:39;98912.31;;;13.42;100.00
70027;BME280;57506;50.092;15.804;2023-07-31T03:41:04;98914.63;;;13.39;100.00
70027;BME280;57506;50.092;15.804;2023-07-31T03:43:31;98917.75;;;13.42;100.00
70027;BME280;57506;50.092;15.804;2023-07-31T03:45:59;98926.47;;;13.44;100.00
70027;BME280;57506;50.092;15.804;2023-07-31T03:48:25;98912.09;;;13.44;100.00
70027;BME280;57506;50.092;15.804;2023-07-31T03:50:50;98916.84;;;13.48;100.00
70027;BME280;57506;50.092;15.804;2023-07-31T03:53:16;98920.16;;;13.50;100.00
70027;BME280;57506;50.092;15.804;2023-07-31T03:55:42;98914.53;;;13.52;100.00
70027;BME280;57506;50.092;15.804;2023-07-31T03:58:07;98918.25;;;13.57;100.00
70027;BME280;57506;50.092;15.804;2023-07-31T04:00:33;98916.56;;;13.63;100.00
70027;BME280;57506;50.092;15.804;2023-07-31T04:02:58;98917.69;;;13.74;100.00
70027;BME280;57506;50.092;15.804;2023-07-31T04:05:24;98918.47;;;13.81;100.00
70027;BME280;57506;50.092;15.804;2023-07-31T04:07:49;98923.00;;;13.87;100.00
70027;BME280;57506;50.092;15.804;2023-07-31T04:10:15;98921.91;;;13.94;100.00
70027;BME280;57506;50.092;15.804;2023-07-31T04:12:40;98925.53;;;14.07;100.00
70027;BME280;57506;50.092;15.804;2023-07-31T04:15:06;98922.19;;;14.11;100.00
70027;BME280;57506;50.092;15.804;2023-07-31T04:17:32;98918.56;;;14.17;100.00
70027;BME280;57506;50.092;15.804;2023-07-31T04:19:57;98916.22;;;14.21;100.00
70027;BME280;57506;50.092;15.804;2023-07-31T04:22:22;98927.59;;;14.29;100.00
70027;BME280;57506;50.092;15.804;2023-07-31T04:24:48;98935.03;;;14.41;100.00
70027;BME280;57506;50.092;15.804;2023-07-31T04:27:13;98940.16;;;14.49;100.00
70027;BME280;57506;50.092;15.804;2023-07-31T04:29:39;98929.91;;;14.51;100.00
70027;BME280;57506;50.092;15.804;2023-07-31T04:32:07;98938.22;;;14.56;100.00
70027;BME280;57506;50.092;15.804;2023-07-31T04:34:33;98938.38;;;14.61;100.00
70027;BME280;57506;50.092;15.804;2023-07-31T04:36:58;98932.63;;;14.69;100.00
70027;BME280;57506;50.092;15.804;2023-07-31T04:39:24;98943.41;;;14.76;100.00
70027;BME280;57506;50.092;15.804;2023-07-31T04:41:49;98943.09;;;14.84;100.00
70027;BME280;57506;50.092;15.804;2023-07-31T04:44:15;98940.75;;;14.87;100.00
70027;BME280;57506;50.092;15.804;2023-07-31T04:46:40;98952.50;;;14.99;100.00
70027;BME280;57506;50.092;15.804;2023-07-31T04:49:06;98929.72;;;15.00;100.00
70027;BME280;57506;50.092;15.804;2023-07-31T04:51:31;98938.63;;;15.08;100.00
70027;BME280;57506;50.092;15.804;2023-07-31T04:53:56;98940.78;;;15.17;100.00
70027;BME280;57506;50.092;15.804;2023-07-31T04:56:22;98941.88;;;15.28;100.00
70027;BME280;57506;50.092;15.804;2023-07-31T04:58:47;98946.78;;;15.37;100.00
70027;BME280;57506;50.092;15.804;2023-07-31T05:01:13;98953.66;;;15.52;100.00
70027;BME280;57506;50.092;15.804;2023-07-31T05:03:38;98944.97;;;15.61;100.00
70027;BME280;57506;50.092;15.804;2023-07-31T05:06:04;98942.88;;;15.75;100.00
70027;BME280;57506;50.092;15.804;2023-07-31T05:08:29;98952.59;;;15.83;100.00
70027;BME280;57506;50.092;15.804;2023-07-31T05:10:55;98961.81;;;15.93;100.00
70027;BME280;57506;50.092;15.804;2023-07-31T05:13:20;98969.19;;;16.04;100.00
70027;BME280;57506;50.092;15.804;2023-07-31T05:15:46;98949.41;;;16.09;100.00
70027;BME280;57506;50.092;15.804;2023-07-31T05:18:11;98948.38;;;16.22;100.00
70027;BME280;57506;50.092;15.804;2023-07-31T05:20:37;98945.75;;;16.27;100.00
70027;BME280;57506;50.092;15.804;2023-07-31T05:23:02;98952.41;;;16.54;100.00
70027;BME280;57506;50.092;15.804;2023-07-31T05:25:28;98949.31;;;16.74;100.00
70027;BME280;57506;50.092;15.804;2023-07-31T05:27:53;98952.53;;;16.71;100.00
70027;BME280;57506;50.092;15.804;2023-07-31T05:30:19;98941.75;;;16.64;100.00
70027;BME280;57506;50.092;15.804;2023-07-31T05:32:46;98949.50;;;16.96;100.00
70027;BME280;57506;50.092;15.804;2023-07-31T05:35:11;98949.56;;;17.12;100.00
70027;BME280;57506;50.092;15.804;2023-07-31T05:37:37;98954.66;;;17.09;100.00
70027;BME280;57506;50.092;15.804;2023-07-31T05:40:03;98954.88;;;17.19;100.00
70027;BME280;57506;50.092;15.804;2023-07-31T05:42:28;98955.66;;;17.31;100.00
70027;BME280;57506;50.092;15.804;2023-07-31T05:44:54;98954.78;;;17.42;100.00
70027;BME280;57506;50.092;15.804;2023-07-31T05:47:19;98947.31;;;17.38;100.00
70027;BME280;57506;50.092;15.804;2023-07-31T05:49:45;98953.69;;;17.43;100.00
70027;BME280;57506;50.092;15.804;2023-07-31T05:52:10;98949.69;;;17.63;100.00
70027;BME280;57506;50.092;15.804;2023-07-31T05:54:36;98957.09;;;17.79;100.00
70027;BME280;57506;50.092;15.804;2023-07-31T05:57:01;98957.94;;;17.79;99.50
70027;BME280;57506;50.092;15.804;2023-07-31T05:59:27;98950.34;;;17.98;96.84
70027;BME280;57506;50.092;15.804;2023-07-31T06:01:53;98945.03;;;17.92;96.79
70027;BME280;57506;50.092;15.804;2023-07-31T06:04:18;98960.66;;;18.30;92.33
70027;BME280;57506;50.092;15.804;2023-07-31T06:06:44;98957.59;;;18.43;93.33
70027;BME280;57506;50.092;15.804;2023-07-31T06:09:09;98961.84;;;18.56;95.04
70027;BME280;57506;50.092;15.804;2023-07-31T06:11:34;98953.34;;;18.52;92.47
70027;BME280;57506;50.092;15.804;2023-07-31T06:14:00;98950.81;;;18.45;95.76
70027;BME280;57506;50.092;15.804;2023-07-31T06:16:26;98952.59;;;18.57;95.70
70027;BME280;57506;50.092;15.804;2023-07-31T06:18:52;98943.56;;;18.56;89.14
70027;BME280;57506;50.092;15.804;2023-07-31T06:21:18;98963.63;;;18.62;89.74
70027;BME280;57506;50.092;15.804;2023-07-31T06:23:43;98963.72;;;18.67;87.97
70027;BME280;57506;50.092;15.804;2023-07-31T06:26:09;98963.94;;;18.65;93.08
70027;BME280;57506;50.092;15.804;2023-07-31T06:28:35;98956.88;;;18.69;90.19
70027;BME280;57506;50.092;15.804;2023-07-31T06:31:01;98959.13;;;18.72;89.86
70027;BME280;57506;50.092;15.804;2023-07-31T06:33:27;98964.75;;;18.82;90.60
70027;BME280;57506;50.092;15.804;2023-07-31T06:35:52;98959.53;;;18.81;89.16
70027;BME280;57506;50.092;15.804;2023-07-31T06:38:22;98949.72;;;18.63;92.28
70027;BME280;57506;50.092;15.804;2023-07-31T06:40:49;98962.84;;;18.83;90.30
70027;BME280;57506;50.092;15.804;2023-07-31T06:43:14;98960.78;;;18.73;90.31
70027;BME280;57506;50.092;15.804;2023-07-31T06:45:40;98954.31;;;18.79;89.90
70027;BME280;57506;50.092;15.804;2023-07-31T06:48:05;98957.78;;;18.75;90.90
70027;BME280;57506;50.092;15.804;2023-07-31T06:50:31;98965.41;;;18.73;90.60
70027;BME280;57506;50.092;15.804;2023-07-31T06:52:57;98966.00;;;18.58;91.66
70027;BME280;57506;50.092;15.804;2023-07-31T06:55:23;98965.66;;;18.71;90.76
70027;BME280;57506;50.092;15.804;2023-07-31T06:57:50;98964.59;;;18.72;89.86
70027;BME280;57506;50.092;15.804;2023-07-31T07:00:17;98952.66;;;18.78;85.29
70027;BME280;57506;50.092;15.804;2023-07-31T07:02:43;98963.06;;;19.03;87.03
70027;BME280;57506;50.092;15.804;2023-07-31T07:05:09;98956.28;;;19.28;84.88
70027;BME280;57506;50.092;15.804;2023-07-31T07:07:34;98951.22;;;19.41;83.80
70027;BME280;57506;50.092;15.804;2023-07-31T07:10:03;98954.22;;;19.40;85.50
70027;BME280;57506;50.092;15.804;2023-07-31T07:12:31;98953.03;;;19.31;83.42
70027;BME280;57506;50.092;15.804;2023-07-31T07:14:57;98962.81;;;19.27;82.89
70027;BME280;57506;50.092;15.804;2023-07-31T07:17:23;98955.09;;;19.45;82.87
70027;BME280;57506;50.092;15.804;2023-07-31T07:19:49;98952.97;;;19.74;78.69
70027;BME280;57506;50.092;15.804;2023-07-31T07:22:14;98934.47;;;19.86;81.20
70027;BME280;57506;50.092;15.804;2023-07-31T07:24:40;98954.25;;;19.94;78.93
70027;BME280;57506;50.092;15.804;2023-07-31T07:27:06;98946.88;;;19.99;77.50
70027;BME280;57506;50.092;15.804;2023-07-31T07:29:31;98938.41;;;19.96;75.63
70027;BME280;57506;50.092;15.804;2023-07-31T07:31:57;98931.28;;;20.00;75.02
70027;BME280;57506;50.092;15.804;2023-07-31T07:34:25;98938.72;;;20.04;77.76
70027;BME280;57506;50.092;15.804;2023-07-31T07:36:51;98943.94;;;20.38;76.25
70027;BME280;57506;50.092;15.804;2023-07-31T07:39:16;98947.75;;;20.37;73.84
70027;BME280;57506;50.092;15.804;2023-07-31T07:41:42;98930.13;;;20.59;74.85
70027;BME280;57506;50.092;15.804;2023-07-31T07:44:08;98933.41;;;20.62;74.82
70027;BME280;57506;50.092;15.804;2023-07-31T07:46:33;98936.56;;;20.90;72.91
70027;BME280;57506;50.092;15.804;2023-07-31T07:48:59;98921.53;;;20.98;71.56
70027;BME280;57506;50.092;15.804;2023-07-31T07:51:25;98925.63;;;21.01;72.32
70027;BME280;57506;50.092;15.804;2023-07-31T07:53:50;98916.00;;;20.88;69.58
70027;BME280;57506;50.092;15.804;2023-07-31T07:56:16;98919.78;;;20.72;71.87
70027;BME280;57506;50.092;15.804;2023-07-31T07:58:42;98923.56;;;20.60;70.89
70027;BME280;57506;50.092;15.804;2023-07-31T08:01:07;98926.72;;;20.47;71.41
70027;BME280;57506;50.092;15.804;2023-07-31T08:03:33;98915.09;;;20.30;71.21
70027;BME280;57506;50.092;15.804;2023-07-31T08:05:59;98929.03;;;20.23;71.57
70027;BME280;57506;50.092;15.804;2023-07-31T08:08:25;98920.72;;;20.13;73.08
70027;BME280;57506;50.092;15.804;2023-07-31T08:10:50;98915.69;;;19.95;71.68
70027;BME280;57506;50.092;15.804;2023-07-31T08:13:19;98926.44;;;20.07;73.25
70027;BME280;57506;50.092;15.804;2023-07-31T08:15:46;98926.44;;;20.07;73.67
70027;BME280;57506;50.092;15.804;2023-07-31T08:18:12;98900.31;;;20.26;76.08
70027;BME280;57506;50.092;15.804;2023-07-31T08:20:37;98913.31;;;20.46;72.86
70027;BME280;57506;50.092;15.804;2023-07-31T08:23:04;98906.56;;;20.58;73.90
70027;BME280;57506;50.092;15.804;2023-07-31T08:25:29;98910.53;;;20.88;74.47
70027;BME280;57506;50.092;15.804;2023-07-31T08:27:55;98901.78;;;20.91;71.34
70027;BME280;57506;50.092;15.804;2023-07-31T08:30:21;98917.44;;;21.11;73.29
70027;BME280;57506;50.092;15.804;2023-07-31T08:32:47;98911.78;;;21.27;71.53
70027;BME280;57506;50.092;15.804;2023-07-31T08:35:12;98900.56;;;21.44;70.85
70027;BME280;57506;50.092;15.804;2023-07-31T08:37:38;98919.81;;;21.85;68.81
70027;BME280;57506;50.092;15.804;2023-07-31T08:40:05;98920.09;;;21.73;66.29
70027;BME280;57506;50.092;15.804;2023-07-31T08:42:31;98916.53;;;21.83;67.10
70027;BME280;57506;50.092;15.804;2023-07-31T08:44:58;98922.25;;;21.61;66.74
70027;BME280;57506;50.092;15.804;2023-07-31T08:47:25;98917.88;;;21.50;66.39
70027;BME280;57506;50.092;15.804;2023-07-31T08:49:52;98916.75;;;21.36;66.81
70027;BME280;57506;50.092;15.804;2023-07-31T08:52:18;98909.63;;;21.40;70.84
70027;BME280;57506;50.092;15.804;2023-07-31T08:54:44;98908.84;;;21.54;70.18
70027;BME280;57506;50.092;15.804;2023-07-31T08:57:10;98910.22;;;21.82;69.50
70027;BME280;57506;50.092;15.804;2023-07-31T08:59:36;98914.66;;;22.04;65.51
70027;BME280;57506;50.092;15.804;2023-07-31T09:02:06;98912.44;;;21.90;65.13
70027;BME280;57506;50.092;15.804;2023-07-31T09:04:33;98906.94;;;21.85;62.96
70027;BME280;57506;50.092;15.804;2023-07-31T09:07:01;98910.22;;;21.82;62.87
70027;BME280;57506;50.092;15.804;2023-07-31T09:09:30;98914.34;;;21.70;63.98
70027;BME280;57506;50.092;15.804;2023-07-31T09:11:59;98909.94;;;21.79;66.73
70027;BME280;57506;50.092;15.804;2023-07-31T09:14:26;98919.03;;;22.05;67.33
70027;BME280;57506;50.092;15.804;2023-07-31T09:16:55;98917.34;;;21.93;65.26
70027;BME280;57506;50.092;15.804;2023-07-31T09:19:34;98909.41;;;22.12;64.05
70027;BME280;57506;50.092;15.804;2023-07-31T09:22:03;98904.47;;;22.29;65.54
70027;BME280;57506;50.092;15.804;2023-07-31T09:24:30;98911.28;;;22.52;63.62
70027;BME280;57506;50.092;15.804;2023-07-31T09:26:57;98915.63;;;22.68;65.10
70027;BME280;57506;50.092;15.804;2023-07-31T09:29:27;98913.44;;;22.71;62.64
70027;BME280;57506;50.092;15.804;2023-07-31T09:31:53;98908.22;;;22.69;66.59
70027;BME280;57506;50.092;15.804;2023-07-31T09:34:20;98908.81;;;22.56;63.93
70027;BME280;57506;50.092;15.804;2023-07-31T09:36:53;98914.00;;;22.62;60.69
70027;BME280;57506;50.092;15.804;2023-07-31T09:39:19;98911.25;;;22.67;63.19
70027;BME280;57506;50.092;15.804;2023-07-31T09:41:54;98916.88;;;23.12;61.52
70027;BME280;57506;50.092;15.804;2023-07-31T09:44:20;98915.88;;;22.87;60.23
70027;BME280;57506;50.092;15.804;2023-07-31T09:46:46;98902.00;;;22.38;61.56
70027;BME280;57506;50.092;15.804;2023-07-31T09:49:13;98901.69;;;22.55;62.48
70027;BME280;57506;50.092;15.804;2023-07-31T09:51:41;98913.22;;;22.52;61.60
70027;BME280;57506;50.092;15.804;2023-07-31T09:54:14;98911.84;;;22.54;64.33
70027;BME280;57506;50.092;15.804;2023-07-31T09:56:43;98916.50;;;22.44;64.70
70027;BME280;57506;50.092;15.804;2023-07-31T09:59:20;98921.78;;;22.20;62.15
70027;BME280;57506;50.092;15.804;2023-07-31T10:01:46;98906.94;;;21.95;64.91
70027;BME280;57506;50.092;15.804;2023-07-31T10:04:13;98907.47;;;21.92;63.51
70027;BME280;57506;50.092;15.804;2023-07-31T10:06:40;98901.47;;;22.06;63.85
70027;BME280;57506;50.092;15.804;2023-07-31T10:09:08;98904.19;;;21.90;61.80
70027;BME280;57506;50.092;15.804;2023-07-31T10:11:41;98898.97;;;21.99;64.46
70027;BME280;57506;50.092;15.804;2023-07-31T10:14:09;98895.66;;;22.32;65.16
70027;BME280;57506;50.092;15.804;2023-07-31T10:16:38;98882.72;;;22.43;63.93
70027;BME280;57506;50.092;15.804;2023-07-31T10:19:05;98878.53;;;22.81;63.84
70027;BME280;57506;50.092;15.804;2023-07-31T10:21:31;98877.13;;;22.89;60.73
70027;BME280;57506;50.092;15.804;2023-07-31T10:24:02;98880.81;;;23.18;64.60
70027;BME280;57506;50.092;15.804;2023-07-31T10:26:29;98870.28;;;22.86;61.78
70027;BME280;57506;50.092;15.804;2023-07-31T10:28:56;98870.81;;;22.83;63.21
70027;BME280;57506;50.092;15.804;2023-07-31T10:31:23;98863.59;;;23.02;63.04
70027;BME280;57506;50.092;15.804;2023-07-31T10:33:51;98870.88;;;23.22;61.64
70027;BME280;57506;50.092;15.804;2023-07-31T10:36:19;98879.72;;;23.19;60.96
70027;BME280;57506;50.092;15.804;2023-07-31T10:38:45;98874.81;;;23.06;62.45
70027;BME280;57506;50.092;15.804;2023-07-31T10:41:11;98865.31;;;23.37;60.18
70027;BME280;57506;50.092;15.804;2023-07-31T10:43:37;98866.94;;;23.83;61.12
70027;BME280;57506;50.092;15.804;2023-07-31T10:46:12;98857.31;;;23.80;58.74
70027;BME280;57506;50.092;15.804;2023-07-31T10:48:39;98856.00;;;23.28;62.21
70027;BME280;57506;50.092;15.804;2023-07-31T10:51:12;98861.16;;;22.91;61.70
70027;BME280;57506;50.092;15.804;2023-07-31T10:53:39;98859.41;;;22.41;62.14
70027;BME280;57506;50.092;15.804;2023-07-31T10:56:10;98854.72;;;22.51;61.95
70027;BME280;57506;50.092;15.804;2023-07-31T10:58:44;98856.91;;;22.49;61.38
70027;BME280;57506;50.092;15.804;2023-07-31T11:01:09;98845.97;;;22.29;61.97
70027;BME280;57506;50.092;15.804;2023-07-31T11:03:45;98853.63;;;22.52;63.50
70027;BME280;57506;50.092;15.804;2023-07-31T11:06:12;98838.19;;;22.66;61.32
70027;BME280;57506;50.092;15.804;2023-07-31T11:08:46;98838.44;;;22.70;60.15
70027;BME280;57506;50.092;15.804;2023-07-31T11:11:17;98827.69;;;22.74;60.52
70027;BME280;57506;50.092;15.804;2023-07-31T11:13:46;98829.63;;;22.78;60.76
70027;BME280;57506;50.092;15.804;2023-07-31T11:16:15;98831.47;;;22.98;61.32
70027;BME280;57506;50.092;15.804;2023-07-31T11:18:43;98822.16;;;23.33;60.32
70027;BME280;57506;50.092;15.804;2023-07-31T11:21:20;98826.44;;;23.49;58.87
70027;BME280;57506;50.092;15.804;2023-07-31T11:23:51;98809.06;;;23.88;60.88
70027;BME280;57506;50.092;15.804;2023-07-31T11:26:17;98809.81;;;24.22;59.12
70027;BME280;57506;50.092;15.804;2023-07-31T11:28:43;98815.19;;;24.08;58.74
70027;BME280;57506;50.092;15.804;2023-07-31T11:31:11;98809.00;;;23.69;57.43
70027;BME280;57506;50.092;15.804;2023-07-31T11:33:37;98801.66;;;23.54;60.39
70027;BME280;57506;50.092;15.804;2023-07-31T11:36:03;98800.81;;;23.59;59.92
70027;BME280;57506;50.092;15.804;2023-07-31T11:38:31;98810.41;;;23.61;59.55
70027;BME280;57506;50.092;15.804;2023-07-31T11:40:59;98803.56;;;23.59;58.89
70027;BME280;57506;50.092;15.804;2023-07-31T11:43:25;98801.53;;;23.35;59.43
70027;BME280;57506;50.092;15.804;2023-07-31T11:45:54;98803.50;;;23.25;59.78
70027;BME280;57506;50.092;15.804;2023-07-31T11:50:51;98786.25;;;23.19;60.79
70027;BME280;57506;50.092;15.804;2023-07-31T11:53:19;98789.38;;;23.42;59.18
70027;BME280;57506;50.092;15.804;2023-07-31T11:55:46;98785.88;;;23.70;60.68
70027;BME280;57506;50.092;15.804;2023-07-31T11:58:13;98781.22;;;23.94;60.77
70027;BME280;57506;50.092;15.804;2023-07-31T12:00:40;98778.88;;;24.06;60.05
70027;BME280;57506;50.092;15.804;2023-07-31T12:03:06;98774.97;;;24.36;57.86
70027;BME280;57506;50.092;15.804;2023-07-31T12:05:32;98770.28;;;24.37;58.85
70027;BME280;57506;50.092;15.804;2023-07-31T12:07:58;98767.97;;;24.87;61.97
70027;BME280;57506;50.092;15.804;2023-07-31T12:10:25;98767.28;;;24.57;59.74
70027;BME280;57506;50.092;15.804;2023-07-31T12:15:37;98763.31;;;25.06;55.55
70027;BME280;57506;50.092;15.804;2023-07-31T12:18:11;98760.53;;;24.87;57.29
70027;BME280;57506;50.092;15.804;2023-07-31T12:20:46;98751.00;;;24.80;57.16
70027;BME280;57506;50.092;15.804;2023-07-31T12:23:20;98747.56;;;24.69;56.67
70027;BME280;57506;50.092;15.804;2023-07-31T12:26:11;98740.50;;;25.19;60.71
70027;BME280;57506;50.092;15.804;2023-07-31T12:31:10;98736.41;;;25.49;54.52
70027;BME280;57506;50.092;15.804;2023-07-31T12:33:38;98736.88;;;25.05;57.23
70027;BME280;57506;50.092;15.804;2023-07-31T12:38:36;98726.19;;;25.82;61.92
70027;BME280;57506;50.092;15.804;2023-07-31T12:41:01;98723.56;;;26.04;57.41
70027;BME280;57506;50.092;15.804;2023-07-31T12:43:27;98721.91;;;26.03;54.41
70027;BME280;57506;50.092;15.804;2023-07-31T12:45:54;98718.84;;;25.77;56.89
70027;BME280;57506;50.092;15.804;2023-07-31T12:48:21;98720.38;;;25.51;56.05
70027;BME280;57506;50.092;15.804;2023-07-31T12:50:46;98712.22;;;24.95;54.90
70027;BME280;57506;50.092;15.804;2023-07-31T12:53:12;98716.19;;;24.46;55.58
70027;BME280;57506;50.092;15.804;2023-07-31T12:55:37;98706.66;;;24.15;57.47
70027;BME280;57506;50.092;15.804;2023-07-31T12:58:03;98712.81;;;24.06;58.99
70027;BME280;57506;50.092;15.804;2023-07-31T13:00:29;98710.94;;;24.26;57.77